sensor_id;sensor_type;location;lat;lon;timestamp;P1;durP1;ratioP1;P2;durP2;ratioP2
74624;SDS011;63131;52.298;8.056;2022-10-12T00:00:02;11.20;;;4.23;;
74624;SDS011;63131;52.298;8.056;2022-10-12T00:02:27;9.65;;;3.85;;
74624;SDS011;63131;52.298;8.056;2022-10-12T00:04:52;11.97;;;3.83;;
74624;SDS011;63131;52.298;8.056;2022-10-12T00:07:17;10.07;;;3.90;;
74624;SDS011;63131;52.298;8.056;2022-10-12T00:09:43;10.70;;;3.93;;
74624;SDS011;63131;52.298;8.056;2022-10-12T00:12:08;10.97;;;4.13;;
74624;SDS011;63131;52.298;8.056;2022-10-12T00:14:36;10.13;;;4.10;;
74624;SDS011;63131;52.298;8.056;2022-10-12T00:17:01;9.13;;;3.63;;
74624;SDS011;63131;52.298;8.056;2022-10-12T00:19:27;10.15;;;3.90;;
74624;SDS011;63131;52.298;8.056;2022-10-12T00:21:52;10.03;;;4.07;;
74624;SDS011;63131;52.298;8.056;2022-10-12T00:24:17;10.43;;;3.83;;
74624;SDS011;63131;52.298;8.056;2022-10-12T00:26:42;11.77;;;4.67;;
74624;SDS011;63131;52.298;8.056;2022-10-12T00:29:07;11.90;;;4.30;;
74624;SDS011;63131;52.298;8.056;2022-10-12T00:31:33;10.43;;;4.38;;
74624;SDS011;63131;52.298;8.056;2022-10-12T00:33:59;10.00;;;4.40;;
74624;SDS011;63131;52.298;8.056;2022-10-12T00:36:28;9.95;;;3.85;;
74624;SDS011;63131;52.298;8.056;2022-10-12T00:38:54;9.20;;;3.90;;
74624;SDS011;63131;52.298;8.056;2022-10-12T00:41:22;11.35;;;4.38;;
74624;SDS011;63131;52.298;8.056;2022-10-12T00:43:48;9.57;;;4.15;;
74624;SDS011;63131;52.298;8.056;2022-10-12T00:48:39;10.63;;;4.27;;
74624;SDS011;63131;52.298;8.056;2022-10-12T00:51:04;11.02;;;4.85;;
74624;SDS011;63131;52.298;8.056;2022-10-12T00:53:33;11.68;;;4.20;;
74624;SDS011;63131;52.298;8.056;2022-10-12T00:56:00;10.05;;;4.53;;
74624;SDS011;63131;52.298;8.056;2022-10-12T00:58:26;9.90;;;3.72;;
74624;SDS011;63131;52.298;8.056;2022-10-12T01:00:55;9.45;;;3.60;;
74624;SDS011;63131;52.298;8.056;2022-10-12T01:03:20;10.90;;;4.03;;
74624;SDS011;63131;52.298;8.056;2022-10-12T01:05:46;11.15;;;3.75;;
74624;SDS011;63131;52.298;8.056;2022-10-12T01:08:11;9.52;;;4.20;;
74624;SDS011;63131;52.298;8.056;2022-10-12T01:10:37;10.83;;;3.63;;
74624;SDS011;63131;52.298;8.056;2022-10-12T01:13:02;12.07;;;3.47;;
74624;SDS011;63131;52.298;8.056;2022-10-12T01:15:28;8.95;;;3.30;;
74624;SDS011;63131;52.298;8.056;2022-10-12T01:17:58;11.65;;;4.38;;
74624;SDS011;63131;52.298;8.056;2022-10-12T01:28:32;9.48;;;3.95;;
74624;SDS011;63131;52.298;8.056;2022-10-12T01:31:12;7.70;;;3.10;;
74624;SDS011;63131;52.298;8.056;2022-10-12T01:33:47;11.25;;;4.13;;
74624;SDS011;63131;52.298;8.056;2022-10-12T01:36:16;9.23;;;3.42;;
74624;SDS011;63131;52.298;8.056;2022-10-12T01:41:43;9.15;;;3.45;;
74624;SDS011;63131;52.298;8.056;2022-10-12T01:44:10;8.00;;;3.67;;
74624;SDS011;63131;52.298;8.056;2022-10-12T01:46:39;9.73;;;3.63;;
74624;SDS011;63131;52.298;8.056;2022-10-12T01:49:04;8.88;;;3.70;;
74624;SDS011;63131;52.298;8.056;2022-10-12T01:51:35;9.77;;;3.42;;
74624;SDS011;63131;52.298;8.056;2022-10-12T01:56:34;11.50;;;3.80;;
74624;SDS011;63131;52.298;8.056;2022-10-12T02:06:38;8.35;;;3.13;;
74624;SDS011;63131;52.298;8.056;2022-10-12T02:09:09;8.35;;;2.90;;
74624;SDS011;63131;52.298;8.056;2022-10-12T02:11:38;10.05;;;3.92;;
74624;SDS011;63131;52.298;8.056;2022-10-12T02:14:10;10.13;;;3.45;;
74624;SDS011;63131;52.298;8.056;2022-10-12T02:16:38;9.40;;;3.72;;
74624;SDS011;63131;52.298;8.056;2022-10-12T02:19:05;11.18;;;3.42;;
74624;SDS011;63131;52.298;8.056;2022-10-12T02:21:33;10.18;;;3.67;;
74624;SDS011;63131;52.298;8.056;2022-10-12T02:23:59;8.23;;;3.20;;
74624;SDS011;63131;52.298;8.056;2022-10-12T02:26:25;8.55;;;3.35;;
74624;SDS011;63131;52.298;8.056;2022-10-12T02:28:51;8.20;;;3.10;;
74624;SDS011;63131;52.298;8.056;2022-10-12T02:33:43;9.13;;;3.07;;
74624;SDS011;63131;52.298;8.056;2022-10-12T02:36:18;9.48;;;3.33;;
74624;SDS011;63131;52.298;8.056;2022-10-12T02:38:47;8.07;;;3.10;;
74624;SDS011;63131;52.298;8.056;2022-10-12T02:41:17;8.55;;;3.90;;
74624;SDS011;63131;52.298;8.056;2022-10-12T02:43:55;8.60;;;3.08;;
74624;SDS011;63131;52.298;8.056;2022-10-12T02:46:21;7.90;;;3.13;;
74624;SDS011;63131;52.298;8.056;2022-10-12T02:48:48;8.15;;;3.55;;
74624;SDS011;63131;52.298;8.056;2022-10-12T02:51:14;9.05;;;3.38;;
74624;SDS011;63131;52.298;8.056;2022-10-12T02:53:39;9.47;;;3.33;;
74624;SDS011;63131;52.298;8.056;2022-10-12T02:56:06;10.02;;;3.40;;
74624;SDS011;63131;52.298;8.056;2022-10-12T02:58:33;9.43;;;3.28;;
74624;SDS011;63131;52.298;8.056;2022-10-12T03:00:59;8.33;;;3.03;;
74624;SDS011;63131;52.298;8.056;2022-10-12T03:03:24;8.80;;;3.17;;
74624;SDS011;63131;52.298;8.056;2022-10-12T03:05:49;9.27;;;3.43;;
74624;SDS011;63131;52.298;8.056;2022-10-12T03:08:14;9.17;;;3.40;;
74624;SDS011;63131;52.298;8.056;2022-10-12T03:10:39;9.27;;;3.03;;
74624;SDS011;63131;52.298;8.056;2022-10-12T03:13:05;11.73;;;3.33;;
74624;SDS011;63131;52.298;8.056;2022-10-12T03:15:30;8.07;;;3.10;;
74624;SDS011;63131;52.298;8.056;2022-10-12T03:17:55;8.73;;;2.72;;
74624;SDS011;63131;52.298;8.056;2022-10-12T03:20:20;10.43;;;3.30;;
74624;SDS011;63131;52.298;8.056;2022-10-12T03:22:46;9.88;;;3.58;;
74624;SDS011;63131;52.298;8.056;2022-10-12T03:25:11;9.93;;;3.40;;
74624;SDS011;63131;52.298;8.056;2022-10-12T03:27:36;8.23;;;2.80;;
74624;SDS011;63131;52.298;8.056;2022-10-12T03:30:02;9.23;;;2.73;;
74624;SDS011;63131;52.298;8.056;2022-10-12T03:32:27;9.98;;;3.30;;
74624;SDS011;63131;52.298;8.056;2022-10-12T03:34:52;9.60;;;2.87;;
74624;SDS011;63131;52.298;8.056;2022-10-12T03:37:17;9.43;;;3.10;;
74624;SDS011;63131;52.298;8.056;2022-10-12T03:39:43;8.83;;;3.50;;
74624;SDS011;63131;52.298;8.056;2022-10-12T03:42:08;9.85;;;3.05;;
74624;SDS011;63131;52.298;8.056;2022-10-12T03:44:34;9.55;;;3.50;;
74624;SDS011;63131;52.298;8.056;2022-10-12T03:47:00;9.02;;;3.50;;
74624;SDS011;63131;52.298;8.056;2022-10-12T03:49:25;10.07;;;3.47;;
74624;SDS011;63131;52.298;8.056;2022-10-12T03:51:50;9.43;;;3.40;;
74624;SDS011;63131;52.298;8.056;2022-10-12T03:54:15;8.57;;;3.37;;
74624;SDS011;63131;52.298;8.056;2022-10-12T03:56:40;10.30;;;3.60;;
74624;SDS011;63131;52.298;8.056;2022-10-12T03:59:06;10.95;;;3.72;;
74624;SDS011;63131;52.298;8.056;2022-10-12T04:01:31;7.67;;;2.87;;
74624;SDS011;63131;52.298;8.056;2022-10-12T04:03:56;9.70;;;3.47;;
74624;SDS011;63131;52.298;8.056;2022-10-12T04:06:22;9.57;;;3.50;;
74624;SDS011;63131;52.298;8.056;2022-10-12T04:08:47;8.30;;;2.50;;
74624;SDS011;63131;52.298;8.056;2022-10-12T04:11:12;7.70;;;3.13;;
74624;SDS011;63131;52.298;8.056;2022-10-12T04:13:37;8.27;;;3.57;;
74624;SDS011;63131;52.298;8.056;2022-10-12T04:16:03;8.30;;;3.33;;
74624;SDS011;63131;52.298;8.056;2022-10-12T04:18:29;7.78;;;3.17;;
74624;SDS011;63131;52.298;8.056;2022-10-12T04:20:54;9.47;;;3.13;;
74624;SDS011;63131;52.298;8.056;2022-10-12T04:23:19;8.47;;;3.27;;
74624;SDS011;63131;52.298;8.056;2022-10-12T04:25:45;8.03;;;3.13;;
74624;SDS011;63131;52.298;8.056;2022-10-12T04:28:10;9.95;;;3.72;;
74624;SDS011;63131;52.298;8.056;2022-10-12T04:30:35;7.97;;;3.40;;
74624;SDS011;63131;52.298;8.056;2022-10-12T04:33:00;8.27;;;3.33;;
74624;SDS011;63131;52.298;8.056;2022-10-12T04:35:25;9.00;;;3.17;;
74624;SDS011;63131;52.298;8.056;2022-10-12T04:37:51;9.40;;;3.50;;
74624;SDS011;63131;52.298;8.056;2022-10-12T04:40:16;8.85;;;3.45;;
74624;SDS011;63131;52.298;8.056;2022-10-12T04:42:41;7.30;;;3.17;;
74624;SDS011;63131;52.298;8.056;2022-10-12T04:45:06;10.32;;;3.63;;
74624;SDS011;63131;52.298;8.056;2022-10-12T04:47:32;10.15;;;3.35;;
74624;SDS011;63131;52.298;8.056;2022-10-12T04:49:57;8.77;;;3.50;;
74624;SDS011;63131;52.298;8.056;2022-10-12T04:52:23;7.93;;;3.30;;
74624;SDS011;63131;52.298;8.056;2022-10-12T04:54:48;8.33;;;3.40;;
74624;SDS011;63131;52.298;8.056;2022-10-12T04:57:13;8.83;;;3.00;;
74624;SDS011;63131;52.298;8.056;2022-10-12T04:59:38;9.53;;;3.93;;
74624;SDS011;63131;52.298;8.056;2022-10-12T05:02:03;9.83;;;3.87;;
74624;SDS011;63131;52.298;8.056;2022-10-12T05:04:29;9.17;;;3.20;;
74624;SDS011;63131;52.298;8.056;2022-10-12T05:06:54;9.50;;;3.23;;
74624;SDS011;63131;52.298;8.056;2022-10-12T05:09:19;8.90;;;3.28;;
74624;SDS011;63131;52.298;8.056;2022-10-12T05:11:44;9.37;;;3.20;;
74624;SDS011;63131;52.298;8.056;2022-10-12T05:14:10;12.27;;;3.80;;
74624;SDS011;63131;52.298;8.056;2022-10-12T05:16:35;8.33;;;3.20;;
74624;SDS011;63131;52.298;8.056;2022-10-12T05:19:00;10.57;;;3.93;;
74624;SDS011;63131;52.298;8.056;2022-10-12T05:21:25;9.93;;;3.67;;
74624;SDS011;63131;52.298;8.056;2022-10-12T05:23:50;10.63;;;3.47;;
74624;SDS011;63131;52.298;8.056;2022-10-12T05:26:16;10.45;;;4.05;;
74624;SDS011;63131;52.298;8.056;2022-10-12T05:28:41;9.63;;;3.45;;
74624;SDS011;63131;52.298;8.056;2022-10-12T05:31:06;11.30;;;3.90;;
74624;SDS011;63131;52.298;8.056;2022-10-12T05:33:32;10.02;;;3.85;;
74624;SDS011;63131;52.298;8.056;2022-10-12T05:35:57;11.10;;;3.90;;
74624;SDS011;63131;52.298;8.056;2022-10-12T05:38:22;10.02;;;4.03;;
74624;SDS011;63131;52.298;8.056;2022-10-12T05:40:47;10.25;;;4.60;;
74624;SDS011;63131;52.298;8.056;2022-10-12T05:43:13;8.23;;;3.53;;
74624;SDS011;63131;52.298;8.056;2022-10-12T05:45:38;8.88;;;3.50;;
74624;SDS011;63131;52.298;8.056;2022-10-12T05:48:03;11.23;;;4.63;;
74624;SDS011;63131;52.298;8.056;2022-10-12T05:50:28;9.20;;;4.25;;
74624;SDS011;63131;52.298;8.056;2022-10-12T05:52:54;11.30;;;4.47;;
74624;SDS011;63131;52.298;8.056;2022-10-12T05:55:19;10.37;;;4.00;;
74624;SDS011;63131;52.298;8.056;2022-10-12T05:57:44;10.73;;;4.00;;
74624;SDS011;63131;52.298;8.056;2022-10-12T06:00:10;8.60;;;4.13;;
74624;SDS011;63131;52.298;8.056;2022-10-12T06:02:35;13.32;;;4.57;;
74624;SDS011;63131;52.298;8.056;2022-10-12T06:05:00;10.52;;;4.20;;
74624;SDS011;63131;52.298;8.056;2022-10-12T06:07:26;11.10;;;4.17;;
74624;SDS011;63131;52.298;8.056;2022-10-12T06:09:51;16.25;;;4.07;;
74624;SDS011;63131;52.298;8.056;2022-10-12T06:12:16;9.52;;;4.30;;
74624;SDS011;63131;52.298;8.056;2022-10-12T06:14:42;9.30;;;4.10;;
74624;SDS011;63131;52.298;8.056;2022-10-12T06:17:07;12.53;;;4.10;;
74624;SDS011;63131;52.298;8.056;2022-10-12T06:19:34;10.15;;;4.22;;
74624;SDS011;63131;52.298;8.056;2022-10-12T06:22:00;9.10;;;3.70;;
74624;SDS011;63131;52.298;8.056;2022-10-12T06:24:25;10.40;;;3.87;;
74624;SDS011;63131;52.298;8.056;2022-10-12T06:26:50;10.73;;;4.13;;
74624;SDS011;63131;52.298;8.056;2022-10-12T06:29:15;10.80;;;3.67;;
74624;SDS011;63131;52.298;8.056;2022-10-12T06:31:41;9.15;;;4.35;;
74624;SDS011;63131;52.298;8.056;2022-10-12T06:34:06;11.33;;;4.27;;
74624;SDS011;63131;52.298;8.056;2022-10-12T06:36:32;8.90;;;4.00;;
74624;SDS011;63131;52.298;8.056;2022-10-12T06:38:57;9.77;;;4.80;;
74624;SDS011;63131;52.298;8.056;2022-10-12T06:41:22;11.43;;;4.30;;
74624;SDS011;63131;52.298;8.056;2022-10-12T06:43:47;10.60;;;4.67;;
74624;SDS011;63131;52.298;8.056;2022-10-12T06:46:12;15.63;;;4.37;;
74624;SDS011;63131;52.298;8.056;2022-10-12T06:48:37;8.20;;;3.60;;
74624;SDS011;63131;52.298;8.056;2022-10-12T06:51:03;10.60;;;4.70;;
74624;SDS011;63131;52.298;8.056;2022-10-12T06:53:28;11.03;;;4.07;;
74624;SDS011;63131;52.298;8.056;2022-10-12T06:55:56;10.13;;;3.97;;
74624;SDS011;63131;52.298;8.056;2022-10-12T06:58:22;13.15;;;5.10;;
74624;SDS011;63131;52.298;8.056;2022-10-12T07:00:47;11.33;;;4.90;;
74624;SDS011;63131;52.298;8.056;2022-10-12T07:03:12;12.33;;;4.90;;
74624;SDS011;63131;52.298;8.056;2022-10-12T07:05:38;11.70;;;4.95;;
74624;SDS011;63131;52.298;8.056;2022-10-12T07:08:03;12.47;;;4.47;;
74624;SDS011;63131;52.298;8.056;2022-10-12T07:10:28;12.35;;;5.03;;
74624;SDS011;63131;52.298;8.056;2022-10-12T07:12:53;9.63;;;4.43;;
74624;SDS011;63131;52.298;8.056;2022-10-12T07:15:19;12.23;;;5.20;;
74624;SDS011;63131;52.298;8.056;2022-10-12T07:17:44;12.80;;;4.77;;
74624;SDS011;63131;52.298;8.056;2022-10-12T07:20:09;13.57;;;4.97;;
74624;SDS011;63131;52.298;8.056;2022-10-12T07:22:34;13.32;;;4.75;;
74624;SDS011;63131;52.298;8.056;2022-10-12T07:25:00;10.73;;;4.60;;
74624;SDS011;63131;52.298;8.056;2022-10-12T07:27:25;13.87;;;5.17;;
74624;SDS011;63131;52.298;8.056;2022-10-12T07:29:50;15.73;;;5.03;;
74624;SDS011;63131;52.298;8.056;2022-10-12T07:32:15;12.70;;;4.23;;
74624;SDS011;63131;52.298;8.056;2022-10-12T07:34:40;14.63;;;5.20;;
74624;SDS011;63131;52.298;8.056;2022-10-12T07:37:08;11.07;;;4.43;;
74624;SDS011;63131;52.298;8.056;2022-10-12T07:39:34;12.35;;;4.18;;
74624;SDS011;63131;52.298;8.056;2022-10-12T07:41:59;9.13;;;3.75;;
74624;SDS011;63131;52.298;8.056;2022-10-12T07:44:25;10.65;;;3.60;;
74624;SDS011;63131;52.298;8.056;2022-10-12T07:46:50;9.27;;;4.05;;
74624;SDS011;63131;52.298;8.056;2022-10-12T07:49:15;13.68;;;4.70;;
74624;SDS011;63131;52.298;8.056;2022-10-12T07:51:41;10.33;;;3.30;;
74624;SDS011;63131;52.298;8.056;2022-10-12T07:54:07;12.18;;;4.07;;
74624;SDS011;63131;52.298;8.056;2022-10-12T07:56:32;12.23;;;3.95;;
74624;SDS011;63131;52.298;8.056;2022-10-12T07:58:58;12.10;;;4.05;;
74624;SDS011;63131;52.298;8.056;2022-10-12T08:01:24;10.57;;;4.07;;
74624;SDS011;63131;52.298;8.056;2022-10-12T08:03:50;12.23;;;4.05;;
74624;SDS011;63131;52.298;8.056;2022-10-12T08:06:17;9.30;;;3.70;;
74624;SDS011;63131;52.298;8.056;2022-10-12T08:08:43;14.65;;;4.47;;
74624;SDS011;63131;52.298;8.056;2022-10-12T08:11:08;15.07;;;4.10;;
74624;SDS011;63131;52.298;8.056;2022-10-12T08:13:35;12.65;;;4.13;;
74624;SDS011;63131;52.298;8.056;2022-10-12T08:16:01;10.35;;;4.03;;
74624;SDS011;63131;52.298;8.056;2022-10-12T08:18:26;11.27;;;3.83;;
74624;SDS011;63131;52.298;8.056;2022-10-12T08:20:51;10.03;;;4.00;;
74624;SDS011;63131;52.298;8.056;2022-10-12T08:23:17;12.50;;;4.10;;
74624;SDS011;63131;52.298;8.056;2022-10-12T08:25:49;11.77;;;3.63;;
74624;SDS011;63131;52.298;8.056;2022-10-12T08:28:14;13.02;;;4.25;;
74624;SDS011;63131;52.298;8.056;2022-10-12T08:30:40;9.83;;;3.57;;
74624;SDS011;63131;52.298;8.056;2022-10-12T08:33:05;11.07;;;3.77;;
74624;SDS011;63131;52.298;8.056;2022-10-12T08:35:30;12.77;;;3.93;;
74624;SDS011;63131;52.298;8.056;2022-10-12T08:37:55;10.13;;;3.83;;
74624;SDS011;63131;52.298;8.056;2022-10-12T08:40:24;11.83;;;3.90;;
74624;SDS011;63131;52.298;8.056;2022-10-12T08:42:58;11.55;;;4.15;;
74624;SDS011;63131;52.298;8.056;2022-10-12T08:47:54;9.73;;;4.07;;
74624;SDS011;63131;52.298;8.056;2022-10-12T08:52:52;10.80;;;3.90;;
74624;SDS011;63131;52.298;8.056;2022-10-12T08:57:48;13.25;;;3.50;;
74624;SDS011;63131;52.298;8.056;2022-10-12T09:00:13;13.00;;;4.07;;
74624;SDS011;63131;52.298;8.056;2022-10-12T09:05:16;9.93;;;3.83;;
74624;SDS011;63131;52.298;8.056;2022-10-12T09:21:09;7.05;;;3.10;;
74624;SDS011;63131;52.298;8.056;2022-10-12T09:23:37;10.63;;;3.38;;
74624;SDS011;63131;52.298;8.056;2022-10-12T09:26:14;9.23;;;3.15;;
74624;SDS011;63131;52.298;8.056;2022-10-12T09:28:43;10.65;;;3.47;;
74624;SDS011;63131;52.298;8.056;2022-10-12T09:33:47;10.60;;;3.38;;
74624;SDS011;63131;52.298;8.056;2022-10-12T09:36:16;9.20;;;3.28;;
74624;SDS011;63131;52.298;8.056;2022-10-12T09:38:43;12.10;;;3.80;;
74624;SDS011;63131;52.298;8.056;2022-10-12T09:41:12;10.57;;;3.77;;
74624;SDS011;63131;52.298;8.056;2022-10-12T09:43:40;10.27;;;4.35;;
74624;SDS011;63131;52.298;8.056;2022-10-12T09:46:05;9.30;;;3.40;;
74624;SDS011;63131;52.298;8.056;2022-10-12T09:48:34;9.57;;;3.35;;
74624;SDS011;63131;52.298;8.056;2022-10-12T09:50:59;9.33;;;3.20;;
74624;SDS011;63131;52.298;8.056;2022-10-12T09:56:06;10.68;;;3.63;;
74624;SDS011;63131;52.298;8.056;2022-10-12T10:01:18;7.82;;;3.30;;
74624;SDS011;63131;52.298;8.056;2022-10-12T10:03:46;9.65;;;3.50;;
74624;SDS011;63131;52.298;8.056;2022-10-12T10:06:11;10.90;;;3.30;;
74624;SDS011;63131;52.298;8.056;2022-10-12T10:08:42;11.73;;;3.08;;
74624;SDS011;63131;52.298;8.056;2022-10-12T10:11:15;11.70;;;3.00;;
74624;SDS011;63131;52.298;8.056;2022-10-12T10:13:45;17.90;;;3.42;;
74624;SDS011;63131;52.298;8.056;2022-10-12T10:16:11;8.57;;;2.92;;
74624;SDS011;63131;52.298;8.056;2022-10-12T10:18:38;13.70;;;3.60;;
74624;SDS011;63131;52.298;8.056;2022-10-12T10:21:07;8.82;;;2.60;;
74624;SDS011;63131;52.298;8.056;2022-10-12T10:26:03;8.50;;;2.80;;
74624;SDS011;63131;52.298;8.056;2022-10-12T10:28:30;8.75;;;2.63;;
74624;SDS011;63131;52.298;8.056;2022-10-12T10:31:03;10.75;;;2.65;;
74624;SDS011;63131;52.298;8.056;2022-10-12T10:33:32;8.20;;;2.63;;
74624;SDS011;63131;52.298;8.056;2022-10-12T10:39:01;10.98;;;2.92;;
74624;SDS011;63131;52.298;8.056;2022-10-12T10:41:30;9.95;;;2.50;;
74624;SDS011;63131;52.298;8.056;2022-10-12T10:43:57;9.70;;;2.40;;
74624;SDS011;63131;52.298;8.056;2022-10-12T10:46:23;11.73;;;3.53;;
74624;SDS011;63131;52.298;8.056;2022-10-12T10:51:17;8.52;;;3.35;;
74624;SDS011;63131;52.298;8.056;2022-10-12T10:53:46;9.15;;;2.40;;
74624;SDS011;63131;52.298;8.056;2022-10-12T10:56:15;10.30;;;2.67;;
74624;SDS011;63131;52.298;8.056;2022-10-12T10:58:45;8.57;;;2.80;;
74624;SDS011;63131;52.298;8.056;2022-10-12T11:03:47;9.07;;;2.83;;
74624;SDS011;63131;52.298;8.056;2022-10-12T11:08:40;12.05;;;2.92;;
74624;SDS011;63131;52.298;8.056;2022-10-12T11:11:11;10.75;;;2.72;;
74624;SDS011;63131;52.298;8.056;2022-10-12T11:13:48;11.27;;;3.08;;
74624;SDS011;63131;52.298;8.056;2022-10-12T11:21:08;11.80;;;3.10;;
74624;SDS011;63131;52.298;8.056;2022-10-12T11:23:39;10.73;;;3.28;;
74624;SDS011;63131;52.298;8.056;2022-10-12T11:26:08;6.90;;;2.63;;
74624;SDS011;63131;52.298;8.056;2022-10-12T11:28:36;10.18;;;3.20;;
74624;SDS011;63131;52.298;8.056;2022-10-12T11:31:03;8.20;;;2.60;;
74624;SDS011;63131;52.298;8.056;2022-10-12T11:33:30;7.47;;;2.45;;
74624;SDS011;63131;52.298;8.056;2022-10-12T11:36:01;9.05;;;2.38;;
74624;SDS011;63131;52.298;8.056;2022-10-12T11:38:29;8.93;;;2.28;;
74624;SDS011;63131;52.298;8.056;2022-10-12T11:41:00;12.35;;;3.28;;
74624;SDS011;63131;52.298;8.056;2022-10-12T11:43:29;10.55;;;3.13;;
74624;SDS011;63131;52.298;8.056;2022-10-12T11:45:56;7.78;;;2.00;;
74624;SDS011;63131;52.298;8.056;2022-10-12T11:48:45;9.95;;;1.90;;
74624;SDS011;63131;52.298;8.056;2022-10-12T11:51:09;10.35;;;2.40;;
74624;SDS011;63131;52.298;8.056;2022-10-12T11:58:30;8.80;;;2.00;;
74624;SDS011;63131;52.298;8.056;2022-10-12T12:01:01;9.02;;;2.08;;
74624;SDS011;63131;52.298;8.056;2022-10-12T12:06:23;8.35;;;2.10;;
74624;SDS011;63131;52.298;8.056;2022-10-12T12:13:33;8.23;;;2.42;;
74624;SDS011;63131;52.298;8.056;2022-10-12T12:18:24;9.18;;;2.17;;
74624;SDS011;63131;52.298;8.056;2022-10-12T12:21:00;7.35;;;2.42;;
74624;SDS011;63131;52.298;8.056;2022-10-12T12:29:21;10.15;;;2.53;;
74624;SDS011;63131;52.298;8.056;2022-10-12T12:31:25;8.48;;;2.10;;
74624;SDS011;63131;52.298;8.056;2022-10-12T12:34:05;7.60;;;2.13;;
74624;SDS011;63131;52.298;8.056;2022-10-12T12:36:38;10.30;;;2.08;;
74624;SDS011;63131;52.298;8.056;2022-10-12T12:39:05;8.68;;;2.03;;
74624;SDS011;63131;52.298;8.056;2022-10-12T12:41:47;10.25;;;1.70;;
74624;SDS011;63131;52.298;8.056;2022-10-12T12:52:15;7.85;;;1.88;;
74624;SDS011;63131;52.298;8.056;2022-10-12T13:07:58;5.15;;;1.40;;
74624;SDS011;63131;52.298;8.056;2022-10-12T13:20:31;5.30;;;1.23;;
74624;SDS011;63131;52.298;8.056;2022-10-12T13:22:57;5.60;;;1.33;;
74624;SDS011;63131;52.298;8.056;2022-10-12T13:25:33;9.55;;;1.70;;
74624;SDS011;63131;52.298;8.056;2022-10-12T13:28:01;8.50;;;1.95;;
74624;SDS011;63131;52.298;8.056;2022-10-12T13:30:34;5.70;;;1.42;;
74624;SDS011;63131;52.298;8.056;2022-10-12T13:38:03;4.50;;;1.25;;
74624;SDS011;63131;52.298;8.056;2022-10-12T13:40:35;6.57;;;1.42;;
74624;SDS011;63131;52.298;8.056;2022-10-12T13:45:46;6.63;;;1.58;;
74624;SDS011;63131;52.298;8.056;2022-10-12T13:48:15;4.47;;;1.02;;
74624;SDS011;63131;52.298;8.056;2022-10-12T13:50:48;8.05;;;1.98;;
74624;SDS011;63131;52.298;8.056;2022-10-12T13:53:13;6.20;;;1.42;;
74624;SDS011;63131;52.298;8.056;2022-10-12T13:58:16;6.70;;;1.43;;
74624;SDS011;63131;52.298;8.056;2022-10-12T14:00:45;5.03;;;1.38;;
74624;SDS011;63131;52.298;8.056;2022-10-12T14:03:11;8.82;;;1.70;;
74624;SDS011;63131;52.298;8.056;2022-10-12T14:08:04;5.10;;;1.58;;
74624;SDS011;63131;52.298;8.056;2022-10-12T14:10:32;8.45;;;1.77;;
74624;SDS011;63131;52.298;8.056;2022-10-12T14:12:58;6.88;;;1.67;;
74624;SDS011;63131;52.298;8.056;2022-10-12T14:15:26;8.02;;;1.63;;
74624;SDS011;63131;52.298;8.056;2022-10-12T14:17:54;6.00;;;1.48;;
74624;SDS011;63131;52.298;8.056;2022-10-12T14:22:48;7.05;;;1.63;;
74624;SDS011;63131;52.298;8.056;2022-10-12T14:25:15;8.43;;;1.77;;
74624;SDS011;63131;52.298;8.056;2022-10-12T14:27:41;6.07;;;1.48;;
74624;SDS011;63131;52.298;8.056;2022-10-12T14:37:38;7.65;;;1.70;;
74624;SDS011;63131;52.298;8.056;2022-10-12T14:52:13;7.38;;;1.63;;
74624;SDS011;63131;52.298;8.056;2022-10-12T14:54:41;5.18;;;1.70;;
74624;SDS011;63131;52.298;8.056;2022-10-12T14:57:11;9.73;;;2.05;;
74624;SDS011;63131;52.298;8.056;2022-10-12T14:59:36;6.22;;;1.60;;
74624;SDS011;63131;52.298;8.056;2022-10-12T15:02:01;6.27;;;1.47;;
74624;SDS011;63131;52.298;8.056;2022-10-12T15:04:26;6.93;;;1.90;;
74624;SDS011;63131;52.298;8.056;2022-10-12T15:09:17;7.35;;;1.80;;
74624;SDS011;63131;52.298;8.056;2022-10-12T15:14:08;6.38;;;1.60;;
74624;SDS011;63131;52.298;8.056;2022-10-12T15:16:34;8.98;;;2.13;;
74624;SDS011;63131;52.298;8.056;2022-10-12T15:18:59;8.63;;;2.28;;
74624;SDS011;63131;52.298;8.056;2022-10-12T15:21:25;10.60;;;1.53;;
74624;SDS011;63131;52.298;8.056;2022-10-12T15:23:50;8.20;;;1.85;;
74624;SDS011;63131;52.298;8.056;2022-10-12T15:26:16;6.50;;;1.50;;
74624;SDS011;63131;52.298;8.056;2022-10-12T15:31:16;8.18;;;1.90;;
74624;SDS011;63131;52.298;8.056;2022-10-12T15:33:41;7.47;;;1.90;;
74624;SDS011;63131;52.298;8.056;2022-10-12T15:36:07;6.80;;;1.98;;
74624;SDS011;63131;52.298;8.056;2022-10-12T15:38:33;13.90;;;3.17;;
74624;SDS011;63131;52.298;8.056;2022-10-12T15:40:58;7.20;;;1.80;;
74624;SDS011;63131;52.298;8.056;2022-10-12T15:43:24;7.68;;;1.98;;
74624;SDS011;63131;52.298;8.056;2022-10-12T15:48:14;9.75;;;2.13;;
74624;SDS011;63131;52.298;8.056;2022-10-12T15:50:41;9.30;;;2.37;;
74624;SDS011;63131;52.298;8.056;2022-10-12T15:53:06;6.80;;;1.77;;
74624;SDS011;63131;52.298;8.056;2022-10-12T15:55:34;6.85;;;1.75;;
74624;SDS011;63131;52.298;8.056;2022-10-12T15:58:00;8.65;;;2.17;;
74624;SDS011;63131;52.298;8.056;2022-10-12T16:02:50;9.18;;;1.65;;
74624;SDS011;63131;52.298;8.056;2022-10-12T16:07:41;8.57;;;1.58;;
74624;SDS011;63131;52.298;8.056;2022-10-12T16:12:31;7.13;;;1.83;;
74624;SDS011;63131;52.298;8.056;2022-10-12T16:14:56;10.23;;;2.10;;
74624;SDS011;63131;52.298;8.056;2022-10-12T16:19:46;9.38;;;2.08;;
74624;SDS011;63131;52.298;8.056;2022-10-12T16:24:37;8.40;;;2.30;;
74624;SDS011;63131;52.298;8.056;2022-10-12T16:29:27;10.25;;;2.22;;
74624;SDS011;63131;52.298;8.056;2022-10-12T16:34:17;8.32;;;1.77;;
74624;SDS011;63131;52.298;8.056;2022-10-12T16:39:08;6.63;;;2.30;;
74624;SDS011;63131;52.298;8.056;2022-10-12T16:43:58;9.25;;;1.95;;
74624;SDS011;63131;52.298;8.056;2022-10-12T16:48:48;7.78;;;1.95;;
74624;SDS011;63131;52.298;8.056;2022-10-12T16:53:40;7.35;;;2.45;;
74624;SDS011;63131;52.298;8.056;2022-10-12T16:56:08;9.55;;;2.35;;
74624;SDS011;63131;52.298;8.056;2022-10-12T17:01:06;8.65;;;2.55;;
74624;SDS011;63131;52.298;8.056;2022-10-12T17:03:31;10.63;;;3.28;;
74624;SDS011;63131;52.298;8.056;2022-10-12T17:08:21;11.57;;;2.53;;
74624;SDS011;63131;52.298;8.056;2022-10-12T17:13:11;9.13;;;2.92;;
74624;SDS011;63131;52.298;8.056;2022-10-12T17:15:38;13.95;;;3.47;;
74624;SDS011;63131;52.298;8.056;2022-10-12T17:20:28;10.60;;;2.80;;
74624;SDS011;63131;52.298;8.056;2022-10-12T17:25:19;8.70;;;3.40;;
74624;SDS011;63131;52.298;8.056;2022-10-12T17:30:10;9.50;;;2.95;;
74624;SDS011;63131;52.298;8.056;2022-10-12T17:35:02;11.82;;;4.60;;
74624;SDS011;63131;52.298;8.056;2022-10-12T17:37:27;12.93;;;4.85;;
74624;SDS011;63131;52.298;8.056;2022-10-12T17:42:18;12.20;;;4.35;;
74624;SDS011;63131;52.298;8.056;2022-10-12T17:44:45;14.07;;;4.43;;
74624;SDS011;63131;52.298;8.056;2022-10-12T17:49:36;15.07;;;4.60;;
74624;SDS011;63131;52.298;8.056;2022-10-12T17:52:01;12.00;;;4.47;;
74624;SDS011;63131;52.298;8.056;2022-10-12T17:54:26;14.47;;;4.73;;
74624;SDS011;63131;52.298;8.056;2022-10-12T17:59:17;14.68;;;5.35;;
74624;SDS011;63131;52.298;8.056;2022-10-12T18:04:08;10.65;;;4.32;;
74624;SDS011;63131;52.298;8.056;2022-10-12T18:06:34;15.55;;;7.50;;
74624;SDS011;63131;52.298;8.056;2022-10-12T18:09:00;12.73;;;6.43;;
74624;SDS011;63131;52.298;8.056;2022-10-12T18:11:25;19.52;;;6.72;;
74624;SDS011;63131;52.298;8.056;2022-10-12T18:13:51;13.52;;;6.25;;
74624;SDS011;63131;52.298;8.056;2022-10-12T18:16:18;15.85;;;5.82;;
74624;SDS011;63131;52.298;8.056;2022-10-12T18:18:44;17.55;;;8.27;;
74624;SDS011;63131;52.298;8.056;2022-10-12T18:21:10;14.48;;;7.75;;